sensor_id;sensor_type;location;lat;lon;timestamp;P1;durP1;ratioP1;P2;durP2;ratioP2
19111;SDS011;9688;51.906;8.376;2023-04-25T00:05:43;13.83;;;4.93;;
19111;SDS011;9688;51.906;8.376;2023-04-25T00:08:29;15.57;;;5.10;;
19111;SDS011;9688;51.906;8.376;2023-04-25T00:11:15;17.53;;;4.77;;
19111;SDS011;9688;51.906;8.376;2023-04-25T00:14:00;19.83;;;5.47;;
19111;SDS011;9688;51.906;8.376;2023-04-25T00:16:46;16.30;;;4.70;;
19111;SDS011;9688;51.906;8.376;2023-04-25T00:19:33;21.27;;;5.83;;
19111;SDS011;9688;51.906;8.376;2023-04-25T00:22:25;19.63;;;4.93;;
19111;SDS011;9688;51.906;8.376;2023-04-25T00:25:13;10.20;;;4.80;;
19111;SDS011;9688;51.906;8.376;2023-04-25T00:27:59;15.97;;;5.00;;
19111;SDS011;9688;51.906;8.376;2023-04-25T00:30:44;16.07;;;5.20;;
19111;SDS011;9688;51.906;8.376;2023-04-25T00:33:31;13.20;;;5.27;;
19111;SDS011;9688;51.906;8.376;2023-04-25T00:36:16;18.60;;;5.43;;
19111;SDS011;9688;51.906;8.376;2023-04-25T00:39:03;19.07;;;5.83;;
19111;SDS011;9688;51.906;8.376;2023-04-25T00:41:50;13.33;;;5.43;;
19111;SDS011;9688;51.906;8.376;2023-04-25T00:44:37;14.27;;;5.17;;
19111;SDS011;9688;51.906;8.376;2023-04-25T00:47:23;17.73;;;5.20;;
19111;SDS011;9688;51.906;8.376;2023-04-25T00:50:09;11.57;;;4.93;;
19111;SDS011;9688;51.906;8.376;2023-04-25T00:52:58;12.70;;;5.00;;
19111;SDS011;9688;51.906;8.376;2023-04-25T00:55:45;12.27;;;5.17;;
19111;SDS011;9688;51.906;8.376;2023-04-25T00:58:31;17.03;;;5.90;;
19111;SDS011;9688;51.906;8.376;2023-04-25T01:01:17;13.07;;;5.10;;
19111;SDS011;9688;51.906;8.376;2023-04-25T01:04:03;10.03;;;5.13;;
19111;SDS011;9688;51.906;8.376;2023-04-25T01:06:49;20.07;;;5.70;;
19111;SDS011;9688;51.906;8.376;2023-04-25T01:09:34;10.83;;;5.33;;
19111;SDS011;9688;51.906;8.376;2023-04-25T01:12:21;16.93;;;5.70;;
19111;SDS011;9688;51.906;8.376;2023-04-25T01:15:08;20.77;;;5.77;;
19111;SDS011;9688;51.906;8.376;2023-04-25T01:17:54;16.40;;;6.10;;
19111;SDS011;9688;51.906;8.376;2023-04-25T01:20:40;17.80;;;6.10;;
19111;SDS011;9688;51.906;8.376;2023-04-25T01:23:28;14.87;;;5.00;;
19111;SDS011;9688;51.906;8.376;2023-04-25T01:26:14;17.93;;;6.50;;
19111;SDS011;9688;51.906;8.376;2023-04-25T01:29:00;15.20;;;6.13;;
19111;SDS011;9688;51.906;8.376;2023-04-25T01:31:46;19.03;;;6.60;;
19111;SDS011;9688;51.906;8.376;2023-04-25T01:34:31;14.80;;;6.07;;
19111;SDS011;9688;51.906;8.376;2023-04-25T01:37:17;24.60;;;6.33;;
19111;SDS011;9688;51.906;8.376;2023-04-25T01:40:06;11.60;;;6.90;;
19111;SDS011;9688;51.906;8.376;2023-04-25T01:42:53;14.83;;;6.43;;
19111;SDS011;9688;51.906;8.376;2023-04-25T01:45:40;12.87;;;6.27;;
19111;SDS011;9688;51.906;8.376;2023-04-25T01:48:25;18.70;;;5.87;;
19111;SDS011;9688;51.906;8.376;2023-04-25T01:51:11;14.60;;;5.83;;
19111;SDS011;9688;51.906;8.376;2023-04-25T01:53:57;18.50;;;7.13;;
19111;SDS011;9688;51.906;8.376;2023-04-25T01:56:49;16.87;;;6.07;;
19111;SDS011;9688;51.906;8.376;2023-04-25T01:59:35;19.37;;;6.93;;
19111;SDS011;9688;51.906;8.376;2023-04-25T02:02:21;16.73;;;6.27;;
19111;SDS011;9688;51.906;8.376;2023-04-25T02:05:09;17.47;;;5.87;;
19111;SDS011;9688;51.906;8.376;2023-04-25T02:07:54;17.10;;;6.00;;
19111;SDS011;9688;51.906;8.376;2023-04-25T02:10:40;15.50;;;6.50;;
19111;SDS011;9688;51.906;8.376;2023-04-25T02:13:27;15.17;;;6.60;;
19111;SDS011;9688;51.906;8.376;2023-04-25T02:16:12;13.77;;;6.90;;
19111;SDS011;9688;51.906;8.376;2023-04-25T02:18:58;15.60;;;6.30;;
19111;SDS011;9688;51.906;8.376;2023-04-25T02:21:43;17.10;;;6.83;;
19111;SDS011;9688;51.906;8.376;2023-04-25T02:24:29;13.40;;;6.57;;
19111;SDS011;9688;51.906;8.376;2023-04-25T02:27:16;16.97;;;7.20;;
19111;SDS011;9688;51.906;8.376;2023-04-25T02:30:05;17.77;;;6.70;;
19111;SDS011;9688;51.906;8.376;2023-04-25T02:32:52;16.83;;;6.80;;
19111;SDS011;9688;51.906;8.376;2023-04-25T02:35:38;21.17;;;8.13;;
19111;SDS011;9688;51.906;8.376;2023-04-25T02:38:23;12.60;;;7.17;;
19111;SDS011;9688;51.906;8.376;2023-04-25T02:41:09;12.90;;;6.50;;
19111;SDS011;9688;51.906;8.376;2023-04-25T02:43:54;18.30;;;6.97;;
19111;SDS011;9688;51.906;8.376;2023-04-25T02:46:41;15.27;;;6.57;;
19111;SDS011;9688;51.906;8.376;2023-04-25T02:49:27;14.23;;;6.33;;
19111;SDS011;9688;51.906;8.376;2023-04-25T02:52:13;12.37;;;5.83;;
19111;SDS011;9688;51.906;8.376;2023-04-25T02:54:58;15.57;;;6.70;;
19111;SDS011;9688;51.906;8.376;2023-04-25T02:57:43;12.63;;;6.37;;
19111;SDS011;9688;51.906;8.376;2023-04-25T03:00:29;12.47;;;5.57;;
19111;SDS011;9688;51.906;8.376;2023-04-25T03:03:17;13.07;;;6.10;;
19111;SDS011;9688;51.906;8.376;2023-04-25T03:06:05;17.30;;;6.70;;
19111;SDS011;9688;51.906;8.376;2023-04-25T03:08:51;13.83;;;5.80;;
19111;SDS011;9688;51.906;8.376;2023-04-25T03:11:38;20.30;;;6.30;;
19111;SDS011;9688;51.906;8.376;2023-04-25T03:14:24;16.07;;;6.00;;
19111;SDS011;9688;51.906;8.376;2023-04-25T03:17:10;13.57;;;6.70;;
19111;SDS011;9688;51.906;8.376;2023-04-25T03:19:57;14.40;;;6.70;;
19111;SDS011;9688;51.906;8.376;2023-04-25T03:22:43;18.53;;;6.50;;
19111;SDS011;9688;51.906;8.376;2023-04-25T03:25:29;13.57;;;7.23;;
19111;SDS011;9688;51.906;8.376;2023-04-25T03:28:14;15.63;;;6.57;;
19111;SDS011;9688;51.906;8.376;2023-04-25T03:31:00;12.87;;;6.27;;
19111;SDS011;9688;51.906;8.376;2023-04-25T03:33:46;11.77;;;6.53;;
19111;SDS011;9688;51.906;8.376;2023-04-25T03:36:33;20.03;;;6.60;;
19111;SDS011;9688;51.906;8.376;2023-04-25T03:39:19;17.07;;;6.03;;
19111;SDS011;9688;51.906;8.376;2023-04-25T03:42:04;10.73;;;5.87;;
19111;SDS011;9688;51.906;8.376;2023-04-25T03:44:51;15.20;;;6.27;;
19111;SDS011;9688;51.906;8.376;2023-04-25T03:47:36;15.40;;;4.87;;
19111;SDS011;9688;51.906;8.376;2023-04-25T03:50:22;13.30;;;4.90;;
19111;SDS011;9688;51.906;8.376;2023-04-25T03:53:09;13.43;;;4.97;;
19111;SDS011;9688;51.906;8.376;2023-04-25T03:55:55;19.27;;;5.33;;
19111;SDS011;9688;51.906;8.376;2023-04-25T03:58:41;19.27;;;5.17;;
19111;SDS011;9688;51.906;8.376;2023-04-25T04:01:26;19.70;;;5.57;;
19111;SDS011;9688;51.906;8.376;2023-04-25T04:04:12;17.17;;;5.53;;
19111;SDS011;9688;51.906;8.376;2023-04-25T04:06:57;18.73;;;5.17;;
19111;SDS011;9688;51.906;8.376;2023-04-25T04:09:44;15.43;;;4.87;;
19111;SDS011;9688;51.906;8.376;2023-04-25T04:12:30;22.13;;;5.90;;
19111;SDS011;9688;51.906;8.376;2023-04-25T04:15:16;15.20;;;4.93;;
19111;SDS011;9688;51.906;8.376;2023-04-25T04:18:01;19.20;;;5.20;;
19111;SDS011;9688;51.906;8.376;2023-04-25T04:20:47;22.50;;;5.97;;
19111;SDS011;9688;51.906;8.376;2023-04-25T04:23:33;18.87;;;5.37;;
19111;SDS011;9688;51.906;8.376;2023-04-25T04:26:20;18.53;;;5.10;;
19111;SDS011;9688;51.906;8.376;2023-04-25T04:29:07;21.83;;;5.37;;
19111;SDS011;9688;51.906;8.376;2023-04-25T04:31:53;27.37;;;5.37;;
19111;SDS011;9688;51.906;8.376;2023-04-25T04:34:39;16.23;;;5.57;;
19111;SDS011;9688;51.906;8.376;2023-04-25T04:37:25;22.43;;;5.20;;
19111;SDS011;9688;51.906;8.376;2023-04-25T04:40:11;16.30;;;4.97;;
19111;SDS011;9688;51.906;8.376;2023-04-25T04:43:01;12.63;;;4.67;;
19111;SDS011;9688;51.906;8.376;2023-04-25T04:45:47;16.40;;;4.83;;
19111;SDS011;9688;51.906;8.376;2023-04-25T04:48:33;14.93;;;5.33;;
19111;SDS011;9688;51.906;8.376;2023-04-25T04:51:19;18.10;;;5.93;;
19111;SDS011;9688;51.906;8.376;2023-04-25T04:54:05;19.17;;;5.00;;
19111;SDS011;9688;51.906;8.376;2023-04-25T04:56:51;16.07;;;5.10;;
19111;SDS011;9688;51.906;8.376;2023-04-25T04:59:39;22.33;;;5.17;;
19111;SDS011;9688;51.906;8.376;2023-04-25T05:02:24;20.57;;;4.70;;
19111;SDS011;9688;51.906;8.376;2023-04-25T05:05:10;14.80;;;4.57;;
19111;SDS011;9688;51.906;8.376;2023-04-25T05:07:56;18.57;;;5.70;;
19111;SDS011;9688;51.906;8.376;2023-04-25T05:10:42;20.07;;;5.33;;
19111;SDS011;9688;51.906;8.376;2023-04-25T05:13:27;23.23;;;4.83;;
19111;SDS011;9688;51.906;8.376;2023-04-25T05:16:14;19.37;;;5.33;;
19111;SDS011;9688;51.906;8.376;2023-04-25T05:18:59;23.63;;;4.93;;
19111;SDS011;9688;51.906;8.376;2023-04-25T05:21:45;20.00;;;4.77;;
19111;SDS011;9688;51.906;8.376;2023-04-25T05:24:31;17.23;;;4.57;;
19111;SDS011;9688;51.906;8.376;2023-04-25T05:27:17;20.47;;;4.80;;
19111;SDS011;9688;51.906;8.376;2023-04-25T05:30:04;17.33;;;4.60;;
19111;SDS011;9688;51.906;8.376;2023-04-25T05:32:53;18.63;;;4.93;;
19111;SDS011;9688;51.906;8.376;2023-04-25T05:35:39;18.63;;;5.00;;
19111;SDS011;9688;51.906;8.376;2023-04-25T05:38:26;22.73;;;5.30;;
19111;SDS011;9688;51.906;8.376;2023-04-25T05:41:12;20.40;;;4.57;;
19111;SDS011;9688;51.906;8.376;2023-04-25T05:43:58;12.67;;;4.37;;
19111;SDS011;9688;51.906;8.376;2023-04-25T05:46:45;23.47;;;5.60;;
19111;SDS011;9688;51.906;8.376;2023-04-25T05:49:34;20.13;;;5.50;;
19111;SDS011;9688;51.906;8.376;2023-04-25T05:52:22;17.40;;;4.37;;
19111;SDS011;9688;51.906;8.376;2023-04-25T05:55:09;14.17;;;4.93;;
19111;SDS011;9688;51.906;8.376;2023-04-25T05:57:55;12.80;;;4.10;;
19111;SDS011;9688;51.906;8.376;2023-04-25T06:00:41;24.10;;;5.13;;
19111;SDS011;9688;51.906;8.376;2023-04-25T06:03:27;18.77;;;5.07;;
19111;SDS011;9688;51.906;8.376;2023-04-25T06:06:14;20.13;;;4.53;;
19111;SDS011;9688;51.906;8.376;2023-04-25T06:08:59;20.47;;;4.37;;
19111;SDS011;9688;51.906;8.376;2023-04-25T06:11:45;17.97;;;4.93;;
19111;SDS011;9688;51.906;8.376;2023-04-25T06:14:31;18.07;;;4.50;;
19111;SDS011;9688;51.906;8.376;2023-04-25T06:17:17;19.43;;;4.07;;
19111;SDS011;9688;51.906;8.376;2023-04-25T06:20:07;21.20;;;4.87;;
19111;SDS011;9688;51.906;8.376;2023-04-25T06:22:57;19.60;;;5.33;;
19111;SDS011;9688;51.906;8.376;2023-04-25T06:25:44;18.70;;;4.23;;
19111;SDS011;9688;51.906;8.376;2023-04-25T06:28:31;16.50;;;4.00;;
19111;SDS011;9688;51.906;8.376;2023-04-25T06:31:17;17.77;;;4.30;;
19111;SDS011;9688;51.906;8.376;2023-04-25T06:34:03;21.63;;;4.37;;
19111;SDS011;9688;51.906;8.376;2023-04-25T06:36:49;14.73;;;4.40;;
19111;SDS011;9688;51.906;8.376;2023-04-25T06:39:35;21.27;;;4.47;;
19111;SDS011;9688;51.906;8.376;2023-04-25T06:42:21;17.67;;;4.40;;
19111;SDS011;9688;51.906;8.376;2023-04-25T06:45:07;12.23;;;4.27;;
19111;SDS011;9688;51.906;8.376;2023-04-25T06:47:54;16.47;;;3.83;;
19111;SDS011;9688;51.906;8.376;2023-04-25T06:50:39;14.77;;;3.60;;
19111;SDS011;9688;51.906;8.376;2023-04-25T06:53:25;13.53;;;4.30;;
19111;SDS011;9688;51.906;8.376;2023-04-25T06:56:12;16.70;;;4.37;;
19111;SDS011;9688;51.906;8.376;2023-04-25T06:58:58;17.67;;;3.73;;
19111;SDS011;9688;51.906;8.376;2023-04-25T07:01:45;10.97;;;3.17;;
19111;SDS011;9688;51.906;8.376;2023-04-25T07:04:30;18.97;;;4.60;;
19111;SDS011;9688;51.906;8.376;2023-04-25T07:07:16;21.27;;;3.80;;
19111;SDS011;9688;51.906;8.376;2023-04-25T07:10:04;17.50;;;3.57;;
19111;SDS011;9688;51.906;8.376;2023-04-25T07:12:52;16.83;;;3.77;;
19111;SDS011;9688;51.906;8.376;2023-04-25T07:15:39;15.23;;;3.23;;
19111;SDS011;9688;51.906;8.376;2023-04-25T07:18:25;13.90;;;3.30;;
19111;SDS011;9688;51.906;8.376;2023-04-25T07:21:11;19.47;;;3.77;;
19111;SDS011;9688;51.906;8.376;2023-04-25T07:23:58;16.80;;;3.87;;
19111;SDS011;9688;51.906;8.376;2023-04-25T07:26:46;16.57;;;3.30;;
19111;SDS011;9688;51.906;8.376;2023-04-25T07:29:35;20.47;;;3.13;;
19111;SDS011;9688;51.906;8.376;2023-04-25T07:32:22;20.90;;;4.10;;
19111;SDS011;9688;51.906;8.376;2023-04-25T07:35:08;14.40;;;3.93;;
19111;SDS011;9688;51.906;8.376;2023-04-25T07:37:54;11.93;;;3.60;;
19111;SDS011;9688;51.906;8.376;2023-04-25T07:40:40;16.70;;;3.23;;
19111;SDS011;9688;51.906;8.376;2023-04-25T07:43:27;12.07;;;3.70;;
19111;SDS011;9688;51.906;8.376;2023-04-25T07:46:18;11.90;;;3.47;;
19111;SDS011;9688;51.906;8.376;2023-04-25T07:49:06;15.80;;;3.30;;
19111;SDS011;9688;51.906;8.376;2023-04-25T07:51:55;10.93;;;3.03;;
19111;SDS011;9688;51.906;8.376;2023-04-25T07:54:45;9.97;;;3.13;;
19111;SDS011;9688;51.906;8.376;2023-04-25T07:57:38;15.33;;;3.60;;
19111;SDS011;9688;51.906;8.376;2023-04-25T08:00:25;17.00;;;2.93;;
19111;SDS011;9688;51.906;8.376;2023-04-25T08:03:12;14.23;;;2.97;;
19111;SDS011;9688;51.906;8.376;2023-04-25T08:05:58;8.43;;;2.80;;
19111;SDS011;9688;51.906;8.376;2023-04-25T08:08:45;12.17;;;3.30;;
19111;SDS011;9688;51.906;8.376;2023-04-25T08:11:31;12.83;;;3.20;;
19111;SDS011;9688;51.906;8.376;2023-04-25T08:14:17;10.43;;;2.90;;
19111;SDS011;9688;51.906;8.376;2023-04-25T08:17:03;12.40;;;3.67;;
19111;SDS011;9688;51.906;8.376;2023-04-25T08:19:51;10.23;;;2.80;;
19111;SDS011;9688;51.906;8.376;2023-04-25T08:22:37;8.97;;;2.80;;
19111;SDS011;9688;51.906;8.376;2023-04-25T08:25:25;10.63;;;3.10;;
19111;SDS011;9688;51.906;8.376;2023-04-25T08:28:13;11.87;;;3.20;;
19111;SDS011;9688;51.906;8.376;2023-04-25T08:31:00;13.20;;;2.90;;
19111;SDS011;9688;51.906;8.376;2023-04-25T08:33:46;10.80;;;2.57;;
19111;SDS011;9688;51.906;8.376;2023-04-25T08:36:35;12.13;;;2.40;;
19111;SDS011;9688;51.906;8.376;2023-04-25T08:39:21;11.13;;;2.20;;
19111;SDS011;9688;51.906;8.376;2023-04-25T08:42:07;8.30;;;2.47;;
19111;SDS011;9688;51.906;8.376;2023-04-25T08:44:54;8.27;;;2.53;;
19111;SDS011;9688;51.906;8.376;2023-04-25T08:47:40;10.27;;;2.33;;
19111;SDS011;9688;51.906;8.376;2023-04-25T08:50:29;12.13;;;3.43;;
19111;SDS011;9688;51.906;8.376;2023-04-25T08:53:22;10.70;;;2.20;;
19111;SDS011;9688;51.906;8.376;2023-04-25T08:56:13;10.50;;;2.47;;
19111;SDS011;9688;51.906;8.376;2023-04-25T08:59:01;9.57;;;2.77;;
19111;SDS011;9688;51.906;8.376;2023-04-25T09:01:49;7.63;;;2.23;;
19111;SDS011;9688;51.906;8.376;2023-04-25T09:04:35;8.53;;;2.77;;
19111;SDS011;9688;51.906;8.376;2023-04-25T09:07:21;10.07;;;2.37;;
19111;SDS011;9688;51.906;8.376;2023-04-25T09:10:12;6.10;;;2.07;;
19111;SDS011;9688;51.906;8.376;2023-04-25T09:13:05;8.90;;;2.50;;
19111;SDS011;9688;51.906;8.376;2023-04-25T09:15:55;4.67;;;1.97;;
19111;SDS011;9688;51.906;8.376;2023-04-25T09:18:42;9.97;;;2.37;;
19111;SDS011;9688;51.906;8.376;2023-04-25T09:21:28;11.37;;;2.37;;
19111;SDS011;9688;51.906;8.376;2023-04-25T09:24:15;7.97;;;2.67;;
19111;SDS011;9688;51.906;8.376;2023-04-25T09:27:04;4.93;;;2.33;;
19111;SDS011;9688;51.906;8.376;2023-04-25T09:29:56;4.13;;;1.73;;
19111;SDS011;9688;51.906;8.376;2023-04-25T09:32:44;4.50;;;1.83;;
19111;SDS011;9688;51.906;8.376;2023-04-25T09:35:30;5.80;;;1.60;;
19111;SDS011;9688;51.906;8.376;2023-04-25T09:38:21;4.77;;;2.10;;
19111;SDS011;9688;51.906;8.376;2023-04-25T09:41:08;8.33;;;1.70;;
19111;SDS011;9688;51.906;8.376;2023-04-25T09:43:57;8.07;;;2.00;;
19111;SDS011;9688;51.906;8.376;2023-04-25T09:46:43;5.80;;;1.93;;
19111;SDS011;9688;51.906;8.376;2023-04-25T09:49:39;5.53;;;2.00;;
19111;SDS011;9688;51.906;8.376;2023-04-25T09:52:31;5.60;;;1.80;;
19111;SDS011;9688;51.906;8.376;2023-04-25T09:55:17;6.00;;;1.90;;
19111;SDS011;9688;51.906;8.376;2023-04-25T09:58:05;8.33;;;2.10;;
19111;SDS011;9688;51.906;8.376;2023-04-25T10:00:53;5.97;;;1.70;;
19111;SDS011;9688;51.906;8.376;2023-04-25T10:03:44;4.57;;;1.70;;
19111;SDS011;9688;51.906;8.376;2023-04-25T10:06:35;6.93;;;1.90;;
19111;SDS011;9688;51.906;8.376;2023-04-25T10:09:24;9.37;;;1.80;;
19111;SDS011;9688;51.906;8.376;2023-04-25T10:12:13;7.83;;;1.90;;
19111;SDS011;9688;51.906;8.376;2023-04-25T10:15:02;3.90;;;1.70;;
19111;SDS011;9688;51.906;8.376;2023-04-25T10:17:54;7.07;;;2.30;;
19111;SDS011;9688;51.906;8.376;2023-04-25T10:20:44;6.17;;;2.20;;
19111;SDS011;9688;51.906;8.376;2023-04-25T10:23:35;7.73;;;2.10;;
19111;SDS011;9688;51.906;8.376;2023-04-25T10:26:24;12.27;;;5.70;;
19111;SDS011;9688;51.906;8.376;2023-04-25T10:29:11;5.30;;;1.90;;
19111;SDS011;9688;51.906;8.376;2023-04-25T10:32:08;3.80;;;1.97;;
19111;SDS011;9688;51.906;8.376;2023-04-25T10:34:56;6.97;;;2.13;;
19111;SDS011;9688;51.906;8.376;2023-04-25T10:41:02;5.93;;;1.57;;
19111;SDS011;9688;51.906;8.376;2023-04-25T10:43:58;9.13;;;2.20;;
19111;SDS011;9688;51.906;8.376;2023-04-25T10:46:46;6.07;;;1.90;;
19111;SDS011;9688;51.906;8.376;2023-04-25T10:49:32;6.53;;;2.03;;
19111;SDS011;9688;51.906;8.376;2023-04-25T10:52:26;4.97;;;1.90;;
19111;SDS011;9688;51.906;8.376;2023-04-25T10:55:15;6.30;;;2.07;;
19111;SDS011;9688;51.906;8.376;2023-04-25T10:58:03;9.53;;;1.97;;
19111;SDS011;9688;51.906;8.376;2023-04-25T11:00:51;6.50;;;2.13;;
19111;SDS011;9688;51.906;8.376;2023-04-25T11:03:40;6.43;;;1.80;;
19111;SDS011;9688;51.906;8.376;2023-04-25T11:06:27;4.53;;;1.93;;
19111;SDS011;9688;51.906;8.376;2023-04-25T11:09:19;5.80;;;1.97;;
19111;SDS011;9688;51.906;8.376;2023-04-25T11:12:04;7.00;;;2.30;;
19111;SDS011;9688;51.906;8.376;2023-04-25T11:14:58;7.23;;;2.00;;
19111;SDS011;9688;51.906;8.376;2023-04-25T11:17:45;4.13;;;1.67;;
19111;SDS011;9688;51.906;8.376;2023-04-25T11:20:33;5.50;;;1.73;;
19111;SDS011;9688;51.906;8.376;2023-04-25T11:23:19;4.97;;;1.70;;
19111;SDS011;9688;51.906;8.376;2023-04-25T11:26:08;5.30;;;1.90;;
19111;SDS011;9688;51.906;8.376;2023-04-25T11:28:59;3.97;;;2.00;;
19111;SDS011;9688;51.906;8.376;2023-04-25T11:31:47;8.57;;;2.00;;
19111;SDS011;9688;51.906;8.376;2023-04-25T11:34:35;6.17;;;1.93;;
19111;SDS011;9688;51.906;8.376;2023-04-25T11:37:22;7.00;;;2.13;;
19111;SDS011;9688;51.906;8.376;2023-04-25T11:40:09;5.30;;;1.50;;
19111;SDS011;9688;51.906;8.376;2023-04-25T11:43:01;5.03;;;2.10;;
19111;SDS011;9688;51.906;8.376;2023-04-25T11:45:48;3.50;;;1.67;;
19111;SDS011;9688;51.906;8.376;2023-04-25T11:48:36;6.33;;;2.00;;
19111;SDS011;9688;51.906;8.376;2023-04-25T11:51:22;5.03;;;1.57;;
19111;SDS011;9688;51.906;8.376;2023-04-25T11:54:09;4.70;;;2.07;;
19111;SDS011;9688;51.906;8.376;2023-04-25T11:56:56;4.40;;;2.33;;
19111;SDS011;9688;51.906;8.376;2023-04-25T11:59:43;6.17;;;1.90;;
19111;SDS011;9688;51.906;8.376;2023-04-25T12:02:30;5.07;;;2.20;;
19111;SDS011;9688;51.906;8.376;2023-04-25T12:05:16;6.13;;;2.37;;
19111;SDS011;9688;51.906;8.376;2023-04-25T12:11:02;5.73;;;1.80;;
19111;SDS011;9688;51.906;8.376;2023-04-25T12:13:51;4.20;;;1.70;;
19111;SDS011;9688;51.906;8.376;2023-04-25T12:16:42;6.57;;;2.10;;
19111;SDS011;9688;51.906;8.376;2023-04-25T12:19:31;5.90;;;2.43;;
19111;SDS011;9688;51.906;8.376;2023-04-25T12:22:19;4.03;;;1.60;;
19111;SDS011;9688;51.906;8.376;2023-04-25T12:25:09;2.47;;;1.10;;
19111;SDS011;9688;51.906;8.376;2023-04-25T12:28:08;6.17;;;2.10;;
19111;SDS011;9688;51.906;8.376;2023-04-25T12:30:58;4.30;;;1.67;;
19111;SDS011;9688;51.906;8.376;2023-04-25T12:33:45;3.57;;;1.60;;
19111;SDS011;9688;51.906;8.376;2023-04-25T12:36:31;6.07;;;1.37;;
19111;SDS011;9688;51.906;8.376;2023-04-25T12:39:17;2.27;;;1.13;;
19111;SDS011;9688;51.906;8.376;2023-04-25T12:42:04;8.50;;;2.00;;
19111;SDS011;9688;51.906;8.376;2023-04-25T12:44:52;2.03;;;1.30;;
19111;SDS011;9688;51.906;8.376;2023-04-25T12:47:37;4.77;;;1.67;;
19111;SDS011;9688;51.906;8.376;2023-04-25T12:50:24;7.40;;;1.70;;
19111;SDS011;9688;51.906;8.376;2023-04-25T12:53:10;4.83;;;1.40;;
19111;SDS011;9688;51.906;8.376;2023-04-25T12:55:56;2.23;;;1.40;;
19111;SDS011;9688;51.906;8.376;2023-04-25T12:58:42;4.13;;;1.40;;
19111;SDS011;9688;51.906;8.376;2023-04-25T13:01:37;4.27;;;1.60;;
19111;SDS011;9688;51.906;8.376;2023-04-25T13:04:23;1.97;;;1.50;;
19111;SDS011;9688;51.906;8.376;2023-04-25T13:07:10;3.03;;;2.00;;
19111;SDS011;9688;51.906;8.376;2023-04-25T13:09:59;2.50;;;1.60;;
19111;SDS011;9688;51.906;8.376;2023-04-25T13:12:52;3.33;;;1.60;;
19111;SDS011;9688;51.906;8.376;2023-04-25T13:15:41;7.20;;;1.80;;
19111;SDS011;9688;51.906;8.376;2023-04-25T13:18:30;4.30;;;1.37;;
19111;SDS011;9688;51.906;8.376;2023-04-25T13:21:21;3.67;;;1.40;;
19111;SDS011;9688;51.906;8.376;2023-04-25T13:24:09;1.80;;;1.10;;
19111;SDS011;9688;51.906;8.376;2023-04-25T13:26:57;1.60;;;1.20;;
19111;SDS011;9688;51.906;8.376;2023-04-25T13:29:43;3.30;;;1.20;;
19111;SDS011;9688;51.906;8.376;2023-04-25T13:32:29;5.43;;;1.50;;
19111;SDS011;9688;51.906;8.376;2023-04-25T13:35:17;3.67;;;1.53;;
19111;SDS011;9688;51.906;8.376;2023-04-25T13:38:04;2.83;;;1.40;;
19111;SDS011;9688;51.906;8.376;2023-04-25T13:40:52;2.10;;;1.40;;
19111;SDS011;9688;51.906;8.376;2023-04-25T13:43:38;3.47;;;1.57;;
19111;SDS011;9688;51.906;8.376;2023-04-25T13:46:24;3.80;;;1.43;;
19111;SDS011;9688;51.906;8.376;2023-04-25T13:49:09;3.97;;;1.37;;
19111;SDS011;9688;51.906;8.376;2023-04-25T13:51:55;3.63;;;1.60;;
19111;SDS011;9688;51.906;8.376;2023-04-25T13:54:41;3.73;;;1.23;;
19111;SDS011;9688;51.906;8.376;2023-04-25T13:57:29;3.40;;;1.50;;
19111;SDS011;9688;51.906;8.376;2023-04-25T14:00:19;2.33;;;1.03;;
19111;SDS011;9688;51.906;8.376;2023-04-25T14:03:05;1.93;;;1.17;;
19111;SDS011;9688;51.906;8.376;2023-04-25T14:05:53;4.80;;;1.50;;
19111;SDS011;9688;51.906;8.376;2023-04-25T14:08:40;2.10;;;1.30;;
19111;SDS011;9688;51.906;8.376;2023-04-25T14:11:31;6.87;;;1.63;;
19111;SDS011;9688;51.906;8.376;2023-04-25T14:14:19;1.63;;;1.53;;
19111;SDS011;9688;51.906;8.376;2023-04-25T14:17:05;2.70;;;1.50;;
19111;SDS011;9688;51.906;8.376;2023-04-25T14:19:51;4.43;;;1.60;;
19111;SDS011;9688;51.906;8.376;2023-04-25T14:22:37;1.73;;;1.43;;
19111;SDS011;9688;51.906;8.376;2023-04-25T14:25:29;6.67;;;2.13;;
19111;SDS011;9688;51.906;8.376;2023-04-25T14:28:15;3.37;;;1.77;;
19111;SDS011;9688;51.906;8.376;2023-04-25T14:31:02;3.10;;;1.90;;
19111;SDS011;9688;51.906;8.376;2023-04-25T14:33:49;7.70;;;2.13;;
19111;SDS011;9688;51.906;8.376;2023-04-25T14:36:36;7.07;;;2.20;;
19111;SDS011;9688;51.906;8.376;2023-04-25T14:39:24;7.30;;;2.03;;
19111;SDS011;9688;51.906;8.376;2023-04-25T14:42:14;3.03;;;1.80;;
19111;SDS011;9688;51.906;8.376;2023-04-25T14:45:05;4.33;;;1.90;;
19111;SDS011;9688;51.906;8.376;2023-04-25T14:47:53;4.77;;;2.17;;
19111;SDS011;9688;51.906;8.376;2023-04-25T14:50:40;5.30;;;1.80;;
19111;SDS011;9688;51.906;8.376;2023-04-25T14:53:27;4.97;;;1.70;;
19111;SDS011;9688;51.906;8.376;2023-04-25T14:56:14;2.47;;;1.53;;
19111;SDS011;9688;51.906;8.376;2023-04-25T14:59:07;3.13;;;1.83;;
19111;SDS011;9688;51.906;8.376;2023-04-25T15:01:59;5.13;;;1.87;;
19111;SDS011;9688;51.906;8.376;2023-04-25T15:04:50;10.13;;;2.37;;
19111;SDS011;9688;51.906;8.376;2023-04-25T15:07:37;5.13;;;1.90;;
19111;SDS011;9688;51.906;8.376;2023-04-25T15:10:23;6.23;;;2.33;;
19111;SDS011;9688;51.906;8.376;2023-04-25T15:13:10;4.80;;;1.53;;
19111;SDS011;9688;51.906;8.376;2023-04-25T15:15:55;5.13;;;1.83;;
19111;SDS011;9688;51.906;8.376;2023-04-25T15:18:41;3.33;;;1.90;;
19111;SDS011;9688;51.906;8.376;2023-04-25T15:21:28;5.37;;;2.47;;
19111;SDS011;9688;51.906;8.376;2023-04-25T15:24:14;4.43;;;1.87;;
19111;SDS011;9688;51.906;8.376;2023-04-25T15:27:00;2.17;;;1.60;;
19111;SDS011;9688;51.906;8.376;2023-04-25T15:29:46;2.77;;;1.67;;
19111;SDS011;9688;51.906;8.376;2023-04-25T15:32:32;4.27;;;1.80;;
19111;SDS011;9688;51.906;8.376;2023-04-25T15:35:18;6.43;;;1.93;;
19111;SDS011;9688;51.906;8.376;2023-04-25T15:38:05;6.07;;;1.83;;
19111;SDS011;9688;51.906;8.376;2023-04-25T15:40:51;2.10;;;1.60;;
19111;SDS011;9688;51.906;8.376;2023-04-25T15:43:38;7.53;;;1.80;;
19111;SDS011;9688;51.906;8.376;2023-04-25T15:46:27;3.70;;;1.53;;
19111;SDS011;9688;51.906;8.376;2023-04-25T15:49:16;5.47;;;1.80;;
19111;SDS011;9688;51.906;8.376;2023-04-25T15:52:05;3.50;;;1.70;;
19111;SDS011;9688;51.906;8.376;2023-04-25T15:54:57;2.60;;;2.10;;
19111;SDS011;9688;51.906;8.376;2023-04-25T15:57:47;4.53;;;1.83;;
19111;SDS011;9688;51.906;8.376;2023-04-25T16:00:34;5.70;;;2.10;;
19111;SDS011;9688;51.906;8.376;2023-04-25T16:03:21;4.43;;;2.20;;
19111;SDS011;9688;51.906;8.376;2023-04-25T16:06:08;4.70;;;2.23;;
19111;SDS011;9688;51.906;8.376;2023-04-25T16:08:54;7.57;;;2.53;;
19111;SDS011;9688;51.906;8.376;2023-04-25T16:11:41;5.53;;;1.97;;
19111;SDS011;9688;51.906;8.376;2023-04-25T16:14:28;3.90;;;2.50;;
19111;SDS011;9688;51.906;8.376;2023-04-25T16:17:17;7.37;;;4.00;;
19111;SDS011;9688;51.906;8.376;2023-04-25T16:20:04;7.50;;;3.00;;
19111;SDS011;9688;51.906;8.376;2023-04-25T16:22:52;8.23;;;3.90;;
19111;SDS011;9688;51.906;8.376;2023-04-25T16:25:38;6.33;;;3.30;;
19111;SDS011;9688;51.906;8.376;2023-04-25T16:28:25;8.10;;;3.73;;
19111;SDS011;9688;51.906;8.376;2023-04-25T16:31:13;7.47;;;2.90;;
19111;SDS011;9688;51.906;8.376;2023-04-25T16:33:59;6.87;;;3.83;;
19111;SDS011;9688;51.906;8.376;2023-04-25T16:36:45;5.23;;;3.00;;
19111;SDS011;9688;51.906;8.376;2023-04-25T16:39:31;12.37;;;5.93;;
19111;SDS011;9688;51.906;8.376;2023-04-25T16:42:16;11.13;;;6.73;;
19111;SDS011;9688;51.906;8.376;2023-04-25T16:45:05;12.50;;;5.40;;
19111;SDS011;9688;51.906;8.376;2023-04-25T16:47:53;5.97;;;4.10;;
19111;SDS011;9688;51.906;8.376;2023-04-25T16:50:41;10.47;;;3.73;;
19111;SDS011;9688;51.906;8.376;2023-04-25T16:53:27;16.93;;;8.63;;
19111;SDS011;9688;51.906;8.376;2023-04-25T16:56:13;9.77;;;4.40;;
19111;SDS011;9688;51.906;8.376;2023-04-25T16:58:58;4.47;;;3.27;;
19111;SDS011;9688;51.906;8.376;2023-04-25T17:01:45;4.57;;;2.80;;
19111;SDS011;9688;51.906;8.376;2023-04-25T17:04:31;2.20;;;2.00;;